Time;durP1;ratioP1;P1;durP2;ratioP2;P2;SDS_P1;SDS_P2;PMS_P1;PMS_P2;Temp;Humidity;BMP_temperature;BMP_pressure;BME280_temperature;BME280_humidity;BME280_pressure;Samples;Min_cycle;Max_cycle;Signal;HPM_P1;HPM_P2
2023/10/26 00:01:31;;;;;;;2.00;1.52;;;19.80;59.80;;;;;;5005189;28;20247;-79
2023/10/26 00:03:59;;;;;;;3.50;1.98;;;19.70;59.80;;;;;;5005232;28;20251;-79
2023/10/26 00:06:26;;;;;;;2.58;1.73;;;19.80;59.80;;;;;;5004566;28;20303;-79
2023/10/26 00:08:53;;;;;;;3.25;1.90;;;19.70;59.80;;;;;;5004147;28;20228;-79
2023/10/26 00:11:20;;;;;;;1.50;1.33;;;19.70;59.80;;;;;;5004531;28;20220;-79
2023/10/26 00:13:47;;;;;;;2.20;1.70;;;19.70;59.80;;;;;;5004575;28;20197;-79
2023/10/26 00:16:15;;;;;;;2.33;1.63;;;19.70;59.80;;;;;;5004333;28;20228;-79
2023/10/26 00:18:42;;;;;;;3.15;1.70;;;19.70;59.80;;;;;;5004080;28;20205;-79
2023/10/26 00:21:10;;;;;;;2.30;1.55;;;19.70;59.80;;;;;;5003555;28;20244;-79
2023/10/26 00:23:37;;;;;;;2.45;1.73;;;19.70;59.80;;;;;;5003647;28;20201;-79
2023/10/26 00:26:04;;;;;;;2.45;1.77;;;19.60;59.80;;;;;;5004881;28;20280;-79
2023/10/26 00:28:31;;;;;;;3.22;1.77;;;19.70;59.80;;;;;;5004449;28;20216;-79
2023/10/26 00:30:58;;;;;;;2.15;1.52;;;19.70;59.80;;;;;;5004369;28;20287;-79
2023/10/26 00:33:27;;;;;;;3.00;1.50;;;19.70;59.80;;;;;;5000679;28;20193;-79
2023/10/26 00:35:54;;;;;;;2.40;1.63;;;19.70;59.80;;;;;;5002595;28;20201;-79
2023/10/26 00:38:21;;;;;;;1.98;1.58;;;19.70;59.80;;;;;;5003462;28;20200;-80
2023/10/26 00:40:48;;;;;;;3.00;1.60;;;19.70;59.80;;;;;;5002867;28;20233;-79
2023/10/26 00:43:20;;;;;;;2.72;1.65;;;19.70;59.70;;;;;;5003327;28;20290;-79
2023/10/26 00:45:46;;;;;;;2.03;1.60;;;19.70;59.80;;;;;;5003312;28;20284;-79
2023/10/26 00:48:13;;;;;;;1.58;1.48;;;19.70;59.80;;;;;;5003345;28;20289;-79
2023/10/26 00:50:42;;;;;;;2.53;1.50;;;19.60;59.80;;;;;;5003816;28;20216;-79
2023/10/26 00:53:09;;;;;;;2.20;1.83;;;19.60;59.80;;;;;;5003006;28;20664;-79
2023/10/26 00:55:36;;;;;;;1.60;1.50;;;19.60;59.80;;;;;;5002929;28;20223;-79
2023/10/26 00:58:03;;;;;;;1.40;1.27;;;19.60;59.70;;;;;;4987282;28;20223;-79
2023/10/26 01:00:30;;;;;;;1.85;1.65;;;19.60;59.70;;;;;;5002556;28;20684;-79
2023/10/26 01:02:57;;;;;;;2.25;1.58;;;19.60;59.70;;;;;;5003302;28;20196;-79
2023/10/26 01:05:25;;;;;;;1.63;1.40;;;19.60;59.70;;;;;;4987399;28;20224;-79
2023/10/26 01:07:54;;;;;;;1.55;1.40;;;19.60;59.60;;;;;;4987641;28;20220;-79
2023/10/26 01:10:21;;;;;;;1.90;1.33;;;19.60;59.60;;;;;;5003512;28;20217;-78
2023/10/26 01:12:48;;;;;;;1.63;1.50;;;19.60;59.60;;;;;;4987099;28;20204;-78
2023/10/26 01:15:15;;;;;;;2.08;1.45;;;19.60;59.60;;;;;;5002831;28;20199;-78
2023/10/26 01:17:42;;;;;;;1.65;1.33;;;19.60;59.70;;;;;;4986285;28;20197;-78
2023/10/26 01:20:10;;;;;;;1.67;1.33;;;19.60;59.60;;;;;;4970527;28;20220;-79
2023/10/26 01:22:39;;;;;;;1.48;1.30;;;19.60;59.70;;;;;;5001676;28;20196;-79
2023/10/26 01:25:07;;;;;;;3.05;1.38;;;19.50;59.60;;;;;;5001177;28;20258;-79
2023/10/26 01:27:37;;;;;;;3.70;1.30;;;19.50;59.50;;;;;;5000595;28;20212;-79
2023/10/26 01:30:04;;;;;;;1.50;1.40;;;19.60;59.70;;;;;;4999770;28;20221;-79
2023/10/26 01:32:31;;;;;;;1.92;1.50;;;19.50;59.60;;;;;;5001256;28;20205;-79
2023/10/26 01:34:59;;;;;;;1.55;1.20;;;19.50;59.70;;;;;;4986789;28;20197;-79
2023/10/26 01:37:27;;;;;;;1.77;1.20;;;19.50;59.60;;;;;;5002937;28;20192;-79
2023/10/26 01:39:55;;;;;;;1.58;1.48;;;19.50;59.70;;;;;;5002690;28;20602;-79
2023/10/26 01:42:22;;;;;;;1.85;1.40;;;19.50;59.70;;;;;;4986280;28;20196;-79
2023/10/26 01:44:50;;;;;;;2.05;1.30;;;19.50;59.70;;;;;;5002869;28;20239;-79
2023/10/26 01:47:17;;;;;;;1.42;1.30;;;19.40;59.60;;;;;;5003490;28;20220;-79
2023/10/26 01:49:45;;;;;;;1.85;1.30;;;19.40;59.70;;;;;;4970682;28;20228;-79
2023/10/26 01:52:12;;;;;;;1.30;1.13;;;19.40;60.40;;;;;;5003321;28;20228;-79
2023/10/26 01:54:40;;;;;;;1.83;1.38;;;19.40;59.70;;;;;;5003462;28;20215;-79
2023/10/26 01:57:09;;;;;;;1.75;1.00;;;19.40;59.70;;;;;;5003975;28;20207;-79
2023/10/26 01:59:36;;;;;;;1.80;1.35;;;19.40;59.70;;;;;;5004075;28;20220;-79
2023/10/26 02:02:05;;;;;;;1.27;1.17;;;19.40;59.80;;;;;;5010270;28;20201;-79
2023/10/26 02:04:32;;;;;;;1.35;1.25;;;19.40;59.80;;;;;;5011823;28;20201;-78
2023/10/26 02:06:59;;;;;;;1.23;1.13;;;19.30;59.70;;;;;;5010814;28;20282;-79
2023/10/26 02:09:26;;;;;;;2.47;1.50;;;19.30;59.70;;;;;;5002402;28;20230;-79
2023/10/26 02:11:54;;;;;;;1.92;1.40;;;19.40;59.80;;;;;;4984619;28;20205;-79
2023/10/26 02:14:23;;;;;;;1.73;1.48;;;19.30;59.70;;;;;;5000094;28;20259;-79
2023/10/26 02:16:51;;;;;;;1.50;1.00;;;19.30;59.80;;;;;;5000009;28;20197;-79
2023/10/26 02:19:18;;;;;;;1.30;1.20;;;19.30;59.80;;;;;;5001028;28;20212;-79
2023/10/26 02:21:45;;;;;;;1.88;1.15;;;19.30;60.40;;;;;;5002047;28;20204;-79
2023/10/26 02:24:11;;;;;;;2.53;1.08;;;19.30;59.80;;;;;;5002701;28;20200;-79
2023/10/26 02:26:38;;;;;;;1.60;1.30;;;19.30;59.80;;;;;;5002521;28;20211;-79
2023/10/26 02:29:06;;;;;;;1.52;1.20;;;19.30;59.80;;;;;;5003478;28;20714;-79
2023/10/26 02:31:34;;;;;;;1.90;1.30;;;19.20;59.80;;;;;;5003067;28;20197;-78
2023/10/26 02:34:01;;;;;;;1.27;1.17;;;19.20;59.80;;;;;;5009408;28;20200;-78
2023/10/26 02:36:28;;;;;;;1.10;1.00;;;19.20;59.80;;;;;;5002131;28;20251;-78
2023/10/26 02:38:56;;;;;;;1.30;1.20;;;19.20;59.80;;;;;;5002774;28;20223;-78
2023/10/26 02:41:23;;;;;;;1.42;1.23;;;19.20;59.90;;;;;;5003402;28;20232;-78
2023/10/26 02:43:49;;;;;;;1.17;1.08;;;19.20;59.80;;;;;;5004195;28;20204;-78
2023/10/26 02:46:16;;;;;;;1.88;1.10;;;19.20;59.90;;;;;;5006266;28;20243;-78
2023/10/26 02:48:45;;;;;;;1.73;1.10;;;19.20;59.80;;;;;;5005618;28;20248;-78
2023/10/26 02:51:12;;;;;;;1.42;1.30;;;19.20;59.80;;;;;;5005971;28;20219;-78
2023/10/26 02:53:40;;;;;;;2.10;1.10;;;19.00;59.70;;;;;;4989882;28;20279;-78
2023/10/26 02:56:07;;;;;;;1.10;1.00;;;19.10;59.80;;;;;;5006699;28;20210;-78
2023/10/26 02:58:35;;;;;;;1.23;1.10;;;19.10;59.80;;;;;;5006246;28;20192;-78
2023/10/26 03:01:04;;;;;;;1.10;1.00;;;19.10;59.70;;;;;;4990686;28;20574;-78
2023/10/26 03:03:31;;;;;;;1.40;1.30;;;19.10;59.70;;;;;;5006546;28;20193;-78
2023/10/26 03:06:01;;;;;;;1.77;1.10;;;19.10;59.80;;;;;;4976740;28;20223;-78
2023/10/26 03:08:28;;;;;;;1.60;1.10;;;19.10;59.60;;;;;;4991719;28;20292;-78
2023/10/26 03:10:55;;;;;;;1.20;1.10;;;19.00;59.60;;;;;;5005042;28;20227;-78
2023/10/26 03:13:21;;;;;;;1.50;1.20;;;19.10;59.70;;;;;;4989670;28;20200;-78
2023/10/26 03:15:49;;;;;;;1.13;1.02;;;19.00;59.70;;;;;;5004908;28;20235;-78
2023/10/26 03:18:16;;;;;;;1.35;1.10;;;19.00;59.60;;;;;;5004091;28;20204;-79
2023/10/26 03:20:43;;;;;;;1.10;1.00;;;19.00;59.60;;;;;;5003366;28;20228;-78
2023/10/26 03:23:12;;;;;;;1.20;1.13;;;19.00;59.60;;;;;;5003116;28;20197;-79
2023/10/26 03:25:39;;;;;;;1.10;0.98;;;19.00;59.60;;;;;;4988162;28;20619;-79
2023/10/26 03:28:06;;;;;;;1.58;1.10;;;19.00;59.60;;;;;;5004284;28;20688;-79
2023/10/26 03:30:33;;;;;;;0.93;0.93;;;19.00;59.60;;;;;;5003887;28;20212;-79
2023/10/26 03:33:01;;;;;;;1.60;1.10;;;19.00;59.50;;;;;;5004597;28;20208;-79
2023/10/26 03:35:28;;;;;;;1.15;1.05;;;19.00;59.50;;;;;;4988307;28;20206;-79
2023/10/26 03:37:55;;;;;;;1.38;1.10;;;19.10;59.50;;;;;;4988079;28;20201;-79
2023/10/26 03:40:24;;;;;;;1.20;1.10;;;19.10;59.50;;;;;;5005761;28;20220;-79
2023/10/26 03:42:51;;;;;;;1.20;1.10;;;19.10;59.40;;;;;;5005253;28;20197;-79
2023/10/26 03:45:18;;;;;;;1.10;1.00;;;19.20;59.30;;;;;;5005233;28;20255;-79
2023/10/26 03:47:45;;;;;;;1.20;1.10;;;19.20;59.30;;;;;;4988209;28;20243;-79
2023/10/26 03:50:12;;;;;;;1.85;1.10;;;19.20;59.20;;;;;;5005425;28;20232;-79
2023/10/26 03:52:39;;;;;;;1.33;1.20;;;19.20;59.00;;;;;;4989038;28;20193;-79
2023/10/26 03:55:06;;;;;;;2.63;1.20;;;19.20;59.00;;;;;;5005173;28;20205;-79
2023/10/26 03:57:38;;;;;;;1.20;1.10;;;19.20;58.90;;;;;;4989752;28;20211;-79
2023/10/26 04:00:05;;;;;;;1.27;1.05;;;19.20;58.90;;;;;;5005737;28;20251;-78
2023/10/26 04:02:39;;;;;;;1.10;1.02;;;19.20;58.80;;;;;;5005763;28;20188;-79
2023/10/26 04:05:06;;;;;;;2.17;1.10;;;19.20;58.80;;;;;;5005884;28;20673;-79
2023/10/26 04:07:34;;;;;;;1.10;1.00;;;19.20;58.80;;;;;;5004833;28;20216;-79
2023/10/26 04:10:05;;;;;;;1.10;1.00;;;19.30;58.90;;;;;;5005773;28;20733;-79
2023/10/26 04:12:32;;;;;;;2.00;0.98;;;19.20;58.80;;;;;;5004744;28;20638;-79
2023/10/26 04:15:00;;;;;;;0.88;0.88;;;19.20;58.80;;;;;;5004596;28;20208;-79
2023/10/26 04:17:28;;;;;;;1.35;1.00;;;19.20;58.90;;;;;;4988904;28;20288;-79
2023/10/26 04:19:54;;;;;;;1.05;0.95;;;19.20;58.80;;;;;;4987724;28;20220;-79
2023/10/26 04:22:21;;;;;;;1.48;1.05;;;19.10;58.80;;;;;;5003437;28;20200;-79
2023/10/26 04:24:49;;;;;;;1.00;0.90;;;19.10;58.80;;;;;;5003435;28;20299;-79
2023/10/26 04:27:16;;;;;;;0.93;0.90;;;19.20;58.90;;;;;;5003302;28;20208;-78
2023/10/26 04:29:44;;;;;;;1.13;1.02;;;19.10;58.90;;;;;;5003869;28;20224;-78
2023/10/26 04:32:13;;;;;;;0.70;0.70;;;19.10;59.00;;;;;;5002826;28;20207;-78
2023/10/26 04:34:43;;;;;;;1.38;1.15;;;19.10;58.80;;;;;;5001640;28;20660;-79
2023/10/26 04:37:11;;;;;;;1.30;0.93;;;19.10;59.00;;;;;;5006475;28;20203;-78
2023/10/26 04:39:41;;;;;;;0.73;0.73;;;19.10;58.80;;;;;;4989917;28;20279;-78
2023/10/26 04:42:08;;;;;;;0.93;0.93;;;19.10;58.80;;;;;;4991498;28;20216;-78
2023/10/26 04:44:35;;;;;;;0.95;0.93;;;19.10;58.80;;;;;;5007091;28;20201;-78
2023/10/26 04:47:02;;;;;;;1.27;1.15;;;19.10;58.70;;;;;;5006259;28;20200;-78
2023/10/26 04:49:31;;;;;;;0.98;0.90;;;19.10;58.70;;;;;;5050794;22;20232;-80
2023/10/26 04:51:58;;;;;;;0.90;0.90;;;19.10;58.60;;;;;;4999581;28;20224;-80
2023/10/26 04:54:27;;;;;;;0.80;0.80;;;19.20;58.60;;;;;;4999293;28;20193;-80
2023/10/26 04:56:54;;;;;;;1.15;1.00;;;19.20;58.70;;;;;;4999324;28;20231;-80
2023/10/26 04:59:21;;;;;;;1.23;1.10;;;19.20;58.70;;;;;;4998728;28;20213;-82
2023/10/26 05:01:48;;;;;;;1.02;0.98;;;19.20;58.70;;;;;;4998349;28;20209;-83
2023/10/26 05:04:15;;;;;;;0.98;0.80;;;19.20;58.70;;;;;;4997534;28;20251;-82
2023/10/26 05:06:43;;;;;;;0.70;0.70;;;19.20;58.60;;;;;;4997123;28;20208;-82
2023/10/26 05:09:10;;;;;;;1.35;0.95;;;19.20;58.70;;;;;;4981245;28;20217;-81
2023/10/26 05:11:37;;;;;;;1.33;1.05;;;19.20;58.40;;;;;;4997149;28;20562;-81
2023/10/26 05:14:06;;;;;;;1.15;0.98;;;19.20;58.40;;;;;;4997213;28;20566;-82
2023/10/26 05:16:33;;;;;;;2.35;1.38;;;19.20;58.90;;;;;;4996968;28;20671;-81
2023/10/26 05:19:00;;;;;;;1.00;1.00;;;19.20;57.50;;;;;;4996622;28;20201;-81
2023/10/26 05:21:28;;;;;;;1.83;0.95;;;19.10;56.40;;;;;;4997968;28;20241;-81
2023/10/26 05:23:56;;;;;;;1.77;1.13;;;19.10;56.10;;;;;;4997931;28;20203;-81
2023/10/26 05:26:23;;;;;;;1.70;1.13;;;19.10;56.70;;;;;;4981174;28;20247;-81
2023/10/26 05:28:50;;;;;;;1.20;0.98;;;19.10;56.90;;;;;;4980797;28;20286;-81
2023/10/26 05:31:17;;;;;;;0.90;0.88;;;19.10;57.20;;;;;;4997009;28;20311;-81
2023/10/26 05:33:44;;;;;;;0.95;0.90;;;19.10;57.40;;;;;;4997262;28;20668;-81
2023/10/26 05:36:10;;;;;;;1.02;0.90;;;19.10;57.50;;;;;;4997419;28;20239;-82
2023/10/26 05:38:38;;;;;;;1.92;0.57;;;19.10;57.10;;;;;;4997604;28;20193;-82
2023/10/26 05:41:07;;;;;;;0.75;0.75;;;19.10;57.30;;;;;;4997912;28;20259;-82
2023/10/26 05:43:33;;;;;;;0.80;0.80;;;19.10;57.50;;;;;;4981684;28;20258;-82
2023/10/26 05:46:03;;;;;;;1.20;0.80;;;19.20;57.90;;;;;;4998234;28;20196;-82
2023/10/26 05:48:30;;;;;;;0.90;0.90;;;19.10;58.10;;;;;;4996912;28;20290;-82
2023/10/26 05:50:56;;;;;;;2.15;1.10;;;19.10;58.10;;;;;;4997236;28;20688;-82
2023/10/26 05:53:24;;;;;;;3.65;1.10;;;19.10;58.10;;;;;;4997959;28;20667;-82
2023/10/26 05:55:57;;;;;;;2.22;1.10;;;19.20;58.20;;;;;;4997440;28;20189;-85
2023/10/26 05:58:25;;;;;;;0.88;0.80;;;19.20;58.40;;;;;;4997118;28;20193;-82
2023/10/26 06:00:52;;;;;;;1.95;1.02;;;19.20;57.90;;;;;;4997849;28;20229;-82
2023/10/26 06:03:19;;;;;;;1.23;1.08;;;19.20;57.80;;;;;;4998607;28;20201;-82
2023/10/26 06:05:47;;;;;;;2.50;1.00;;;19.20;58.00;;;;;;4999095;28;20204;-82
2023/10/26 06:08:14;;;;;;;1.30;0.80;;;19.20;58.10;;;;;;4997691;28;20212;-82
2023/10/26 06:10:41;;;;;;;0.90;0.90;;;19.20;58.10;;;;;;5012370;28;20248;-81
2023/10/26 06:13:08;;;;;;;1.83;0.85;;;19.20;58.20;;;;;;5020751;28;20169;-82
2023/10/26 06:15:37;;;;;;;1.70;1.10;;;19.20;58.10;;;;;;5012548;28;20207;-82
2023/10/26 06:18:04;;;;;;;1.02;0.90;;;19.20;58.20;;;;;;5000080;28;20200;-82
2023/10/26 06:20:31;;;;;;;1.92;1.00;;;19.20;58.20;;;;;;4984693;28;20575;-81
2023/10/26 06:22:58;;;;;;;0.93;0.93;;;19.20;58.00;;;;;;5000792;28;20201;-81
2023/10/26 06:25:28;;;;;;;1.23;1.05;;;19.20;58.20;;;;;;4984274;28;20200;-82
2023/10/26 06:27:54;;;;;;;2.13;1.00;;;19.20;58.20;;;;;;5000349;28;20710;-81
2023/10/26 06:30:22;;;;;;;2.75;1.20;;;19.20;57.80;;;;;;5000573;28;20220;-81
2023/10/26 06:32:50;;;;;;;1.20;1.10;;;19.20;58.20;;;;;;5001127;28;20200;-81
2023/10/26 06:35:18;;;;;;;3.15;1.25;;;19.20;58.10;;;;;;5001643;28;20200;-81
2023/10/26 06:37:45;;;;;;;6.60;1.45;;;19.30;58.10;;;;;;5000317;28;20264;-81
2023/10/26 06:40:12;;;;;;;5.72;1.50;;;19.30;58.00;;;;;;5000256;28;20220;-81
2023/10/26 06:42:39;;;;;;;7.03;1.90;;;19.30;58.10;;;;;;5000112;28;20201;-81
2023/10/26 06:45:08;;;;;;;6.53;1.92;;;19.30;57.70;;;;;;5000153;28;20199;-81
2023/10/26 06:47:35;;;;;;;5.95;1.80;;;19.30;57.70;;;;;;4999796;28;20204;-81
2023/10/26 06:50:03;;;;;;;12.70;2.85;;;19.40;57.70;;;;;;4999438;28;20236;-81
2023/10/26 06:52:30;;;;;;;11.15;2.38;;;19.30;57.70;;;;;;4983277;28;20651;-81
2023/10/26 06:54:58;;;;;;;12.02;2.70;;;19.30;57.70;;;;;;4999954;28;20197;-81
2023/10/26 06:57:25;;;;;;;9.05;2.10;;;19.40;57.70;;;;;;4984459;28;20241;-81
2023/10/26 06:59:52;;;;;;;8.65;2.40;;;19.40;57.70;;;;;;5000432;28;20220;-81
2023/10/26 07:02:19;;;;;;;8.23;2.25;;;19.40;57.70;;;;;;4983914;28;20558;-81
2023/10/26 07:04:46;;;;;;;3.75;2.08;;;19.40;57.60;;;;;;5001135;28;20200;-81
2023/10/26 07:07:15;;;;;;;9.73;2.00;;;19.40;57.60;;;;;;5000507;28;20292;-81
2023/10/26 07:09:42;;;;;;;5.43;2.30;;;19.40;57.90;;;;;;5001694;28;20255;-81
2023/10/26 07:12:09;;;;;;;8.77;2.08;;;19.40;57.90;;;;;;5001480;28;20200;-82
2023/10/26 07:14:36;;;;;;;8.57;2.47;;;19.40;58.10;;;;;;4999353;28;20228;-82
2023/10/26 07:17:04;;;;;;;8.10;2.10;;;19.40;58.10;;;;;;4999436;28;20201;-82
2023/10/26 07:19:30;;;;;;;10.10;2.30;;;19.40;57.90;;;;;;5000213;28;20221;-82
2023/10/26 07:21:57;;;;;;;6.05;2.08;;;19.40;57.70;;;;;;5000394;28;20216;-82
2023/10/26 07:24:25;;;;;;;5.78;2.10;;;19.40;57.60;;;;;;5000363;28;20201;-82
2023/10/26 07:26:52;;;;;;;5.60;2.13;;;19.40;57.70;;;;;;4983875;28;20248;-82
2023/10/26 07:29:19;;;;;;;5.28;1.95;;;19.50;57.70;;;;;;5000014;28;20742;-82
2023/10/26 07:31:46;;;;;;;5.80;2.20;;;19.50;57.70;;;;;;4984991;28;20201;-82
2023/10/26 07:34:13;;;;;;;5.35;2.40;;;19.50;57.70;;;;;;5000145;28;20197;-82
2023/10/26 07:36:41;;;;;;;5.07;2.53;;;19.50;57.70;;;;;;5000349;28;20300;-82
2023/10/26 07:39:07;;;;;;;6.97;2.95;;;19.60;57.70;;;;;;5001727;28;20192;-82
2023/10/26 07:41:36;;;;;;;13.00;3.60;;;19.60;57.70;;;;;;5000626;28;20203;-82
2023/10/26 07:44:03;;;;;;;11.27;3.55;;;19.60;57.90;;;;;;4985990;28;20231;-82
2023/10/26 07:46:30;;;;;;;9.48;3.35;;;19.60;57.80;;;;;;5012282;28;20196;-82
2023/10/26 07:48:57;;;;;;;8.52;3.40;;;19.60;57.80;;;;;;4998854;28;20229;-81
2023/10/26 07:51:24;;;;;;;12.20;3.70;;;19.70;57.90;;;;;;5015595;28;20220;-82
2023/10/26 07:53:51;;;;;;;9.70;3.40;;;19.70;58.30;;;;;;5015072;28;20197;-81
2023/10/26 07:56:18;;;;;;;12.43;3.85;;;19.70;58.50;;;;;;5015438;28;20201;-81
2023/10/26 07:58:47;;;;;;;9.85;4.55;;;19.70;58.10;;;;;;5032922;28;20203;-83
2023/10/26 08:01:14;;;;;;;21.02;7.82;;;19.80;58.50;;;;;;5015218;28;20224;-82
2023/10/26 08:03:41;;;;;;;21.58;8.38;;;19.90;60.20;;;;;;5012625;28;20268;-82
2023/10/26 08:06:09;;;;;;;16.88;6.90;;;19.90;60.70;;;;;;5014763;28;20211;-82
2023/10/26 08:08:36;;;;;;;18.73;5.95;;;19.90;60.20;;;;;;5014393;28;20272;-82
2023/10/26 08:11:10;;;;;;;12.88;4.78;;;20.00;59.10;;;;;;5015514;28;20247;-82
2023/10/26 08:13:38;;;;;;;18.30;5.35;;;20.00;58.70;;;;;;5015330;28;20227;-82
2023/10/26 08:16:06;;;;;;;9.25;3.97;;;20.00;58.50;;;;;;5001600;28;20205;-82
2023/10/26 08:18:33;;;;;;;10.68;4.03;;;20.00;57.90;;;;;;4997990;28;20207;-81
2023/10/26 08:21:02;;;;;;;11.48;4.15;;;20.00;58.10;;;;;;4999144;28;20224;-81
2023/10/26 08:23:29;;;;;;;29.70;13.38;;;20.00;57.70;;;;;;4998168;28;20205;-81
2023/10/26 08:25:56;;;;;;;29.00;11.88;;;20.10;58.90;;;;;;4982129;28;20282;-81
2023/10/26 08:28:23;;;;;;;29.67;15.98;;;20.10;60.20;;;;;;4997574;28;20209;-81
2023/10/26 08:30:52;;;;;;;22.40;10.05;;;20.20;60.00;;;;;;4997496;28;20237;-81
2023/10/26 08:33:21;;;;;;;13.88;7.40;;;20.20;59.10;;;;;;5014044;28;20202;-81
2023/10/26 08:35:51;;;;;;;19.02;7.72;;;20.20;58.50;;;;;;4997685;28;20288;-81
2023/10/26 08:38:18;;;;;;;21.23;9.30;;;20.20;58.50;;;;;;4997395;28;20288;-81
2023/10/26 08:40:51;;;;;;;18.95;9.40;;;20.30;59.90;;;;;;4996368;28;20212;-81
2023/10/26 08:43:18;;;;;;;22.83;12.93;;;20.30;59.70;;;;;;4997222;28;20284;-81
2023/10/26 08:45:45;;;;;;;18.33;8.65;;;20.30;60.10;;;;;;4997348;28;20723;-81
2023/10/26 08:48:15;;;;;;;17.50;8.10;;;20.30;59.10;;;;;;4980962;28;20211;-81
2023/10/26 08:50:43;;;;;;;17.92;7.85;;;20.40;59.90;;;;;;4997718;28;20228;-81
2023/10/26 08:53:10;;;;;;;11.88;5.93;;;20.40;59.20;;;;;;4997439;28;20659;-81
2023/10/26 08:55:38;;;;;;;13.65;5.82;;;20.40;58.70;;;;;;4997233;28;20201;-81
2023/10/26 08:58:05;;;;;;;11.63;5.85;;;20.40;58.40;;;;;;4965301;28;20201;-81
2023/10/26 09:00:32;;;;;;;9.82;5.35;;;20.40;58.20;;;;;;4997539;28;20224;-81
2023/10/26 09:02:59;;;;;;;11.98;5.72;;;20.40;57.90;;;;;;4997103;28;20200;-81
2023/10/26 09:05:26;;;;;;;9.25;5.30;;;20.40;57.70;;;;;;4998190;28;20196;-81
2023/10/26 09:07:54;;;;;;;14.55;6.07;;;20.40;57.60;;;;;;4997565;28;20266;-81
2023/10/26 09:10:28;;;;;;;12.75;4.68;;;20.40;57.80;;;;;;4997528;28;20287;-82
2023/10/26 09:13:00;;;;;;;10.95;5.00;;;20.40;58.00;;;;;;4997133;28;20225;-82
2023/10/26 09:15:27;;;;;;;8.10;4.30;;;20.40;58.00;;;;;;5015410;28;20189;-81
2023/10/26 09:17:56;;;;;;;10.38;4.47;;;20.40;57.70;;;;;;4997399;28;20696;-81
2023/10/26 09:20:25;;;;;;;7.05;3.88;;;20.40;57.30;;;;;;4981159;28;20298;-81
2023/10/26 09:22:52;;;;;;;7.03;4.03;;;20.50;57.30;;;;;;4997671;28;20291;-81
2023/10/26 09:25:20;;;;;;;10.35;3.70;;;20.50;57.30;;;;;;4996832;28;20201;-81
2023/10/26 09:27:47;;;;;;;7.95;4.63;;;20.50;57.40;;;;;;4981401;28;20197;-81
2023/10/26 09:30:24;;;;;;;12.43;5.20;;;20.50;57.40;;;;;;4997497;28;20576;-81
2023/10/26 09:32:51;;;;;;;7.57;4.30;;;20.60;58.10;;;;;;4997153;28;20288;-81
2023/10/26 09:35:27;;;;;;;7.55;4.25;;;20.60;57.50;;;;;;4997170;28;20200;-81
2023/10/26 09:37:54;;;;;;;6.70;4.05;;;20.60;57.30;;;;;;4996752;28;20201;-81
2023/10/26 09:40:29;;;;;;;10.95;5.35;;;20.60;57.60;;;;;;4999170;28;20220;-81
2023/10/26 09:42:56;;;;;;;8.10;4.30;;;20.60;58.30;;;;;;5001098;28;20196;-80
2023/10/26 09:45:23;;;;;;;7.07;4.07;;;20.60;57.50;;;;;;5004186;28;20659;-80
2023/10/26 09:47:50;;;;;;;8.50;4.10;;;20.60;57.80;;;;;;5019907;28;20193;-80
2023/10/26 09:50:17;;;;;;;7.07;3.78;;;20.60;57.30;;;;;;5041554;28;20254;-80
2023/10/26 09:52:44;;;;;;;6.90;3.08;;;20.60;57.10;;;;;;5031580;28;20562;-80
2023/10/26 09:55:11;;;;;;;5.78;3.40;;;20.60;56.90;;;;;;5021319;28;20667;-82
2023/10/26 09:57:44;;;;;;;5.55;3.20;;;20.50;57.00;;;;;;5021245;28;20286;-82
2023/10/26 10:00:13;;;;;;;4.53;2.58;;;20.50;57.10;;;;;;5021361;28;20306;-82
2023/10/26 10:02:40;;;;;;;5.38;3.53;;;20.50;57.00;;;;;;5021297;28;20200;-81
2023/10/26 10:05:07;;;;;;;7.88;3.70;;;20.50;57.00;;;;;;5021101;28;20620;-81
2023/10/26 10:07:44;;;;;;;8.00;3.63;;;20.50;57.20;;;;;;5020824;28;20199;-81
2023/10/26 10:10:11;;;;;;;6.78;3.60;;;20.40;57.60;;;;;;5004455;28;20740;-81
2023/10/26 10:12:42;;;;;;;12.95;3.97;;;20.50;57.30;;;;;;5020138;28;20204;-81
2023/10/26 10:15:09;;;;;;;6.38;3.33;;;20.40;57.50;;;;;;5020678;28;20250;-82
2023/10/26 10:18:16;;;;;;;9.20;3.78;;;20.40;58.20;;;;;;5019842;28;20204;-82
2023/10/26 10:20:44;;;;;;;8.43;4.00;;;20.50;58.20;;;;;;5020144;28;20311;-82
2023/10/26 10:23:29;;;;;;;5.80;3.45;;;20.50;58.20;;;;;;5003752;28;20201;-82
2023/10/26 10:26:00;;;;;;;7.75;3.63;;;20.50;58.20;;;;;;5019862;28;20199;-81
2023/10/26 10:28:51;;;;;;;6.75;3.15;;;20.50;58.00;;;;;;5019784;28;20188;-81
2023/10/26 10:31:40;;;;;;;5.82;3.53;;;20.50;57.90;;;;;;5019946;28;20220;-81
2023/10/26 10:34:12;;;;;;;11.52;6.07;;;20.50;57.90;;;;;;5020121;28;20200;-81
2023/10/26 10:37:11;;;;;;;16.48;7.25;;;20.60;59.20;;;;;;5020110;28;20246;-81
2023/10/26 10:39:38;;;;;;;9.77;5.28;;;20.60;60.90;;;;;;4986916;28;20216;-81
2023/10/26 10:42:09;;;;;;;11.30;4.93;;;20.60;60.00;;;;;;5019612;28;20547;-81
2023/10/26 10:44:38;;;;;;;10.70;4.90;;;20.60;59.50;;;;;;5019491;28;20196;-81
2023/10/26 10:47:05;;;;;;;9.18;4.68;;;20.60;59.30;;;;;;5019243;28;20694;-81
2023/10/26 10:49:31;;;;;;;7.55;4.15;;;20.60;59.10;;;;;;5131212;22;20239;-80
2023/10/26 10:51:58;;;;;;;9.50;4.40;;;20.70;59.00;;;;;;5018078;28;20197;-81
2023/10/26 10:54:25;;;;;;;6.75;3.83;;;20.70;58.90;;;;;;5020394;28;20201;-81
2023/10/26 10:56:52;;;;;;;7.82;3.80;;;20.70;58.80;;;;;;5020521;28;20197;-81
2023/10/26 10:59:20;;;;;;;7.82;3.92;;;20.70;58.60;;;;;;5021000;28;20230;-81
2023/10/26 11:01:49;;;;;;;6.55;3.63;;;20.70;58.40;;;;;;5026225;28;20201;-81
2023/10/26 11:04:16;;;;;;;6.88;3.42;;;20.70;58.20;;;;;;5017140;28;20670;-81
2023/10/26 11:06:47;;;;;;;7.85;3.95;;;20.80;58.10;;;;;;5017748;28;20201;-81
2023/10/26 11:09:24;;;;;;;7.60;3.20;;;20.70;58.00;;;;;;5019452;28;20185;-81
2023/10/26 11:11:51;;;;;;;8.15;3.83;;;20.80;58.00;;;;;;5025942;28;20247;-81
2023/10/26 11:14:20;;;;;;;6.65;3.10;;;20.80;57.90;;;;;;5018149;28;20255;-81
2023/10/26 11:16:47;;;;;;;7.53;3.00;;;20.80;57.80;;;;;;5017821;28;20679;-81
2023/10/26 11:19:15;;;;;;;6.93;3.40;;;20.80;57.80;;;;;;5018119;28;20718;-81
2023/10/26 11:21:42;;;;;;;4.88;3.10;;;20.80;57.70;;;;;;5017865;28;20203;-81
2023/10/26 11:24:09;;;;;;;7.18;3.00;;;20.80;57.60;;;;;;5002203;28;20291;-81
2023/10/26 11:26:36;;;;;;;6.22;3.30;;;20.90;57.50;;;;;;5005260;28;20656;-81
2023/10/26 11:29:04;;;;;;;5.57;3.28;;;20.90;57.50;;;;;;5020269;28;20212;-81
2023/10/26 11:31:36;;;;;;;5.00;3.10;;;20.90;57.50;;;;;;5025633;28;20213;-81
2023/10/26 11:34:06;;;;;;;6.07;3.22;;;20.90;57.40;;;;;;5024168;28;20231;-80
2023/10/26 11:36:35;;;;;;;3.50;2.60;;;20.90;57.70;;;;;;5004125;28;20219;-80
2023/10/26 11:39:02;;;;;;;5.55;2.80;;;20.90;57.70;;;;;;5020409;28;20204;-80
2023/10/26 11:41:29;;;;;;;4.63;2.83;;;21.00;57.80;;;;;;5020364;28;20563;-81
2023/10/26 11:43:56;;;;;;;3.95;2.83;;;21.00;57.70;;;;;;5005314;28;20283;-81
2023/10/26 11:46:34;;;;;;;4.32;2.33;;;21.00;57.50;;;;;;5020515;28;20267;-81
2023/10/26 11:49:02;;;;;;;4.78;2.30;;;21.00;57.30;;;;;;5021523;28;20309;-80
2023/10/26 11:51:29;;;;;;;3.33;2.30;;;21.00;57.30;;;;;;5020819;28;20580;-81
2023/10/26 11:53:57;;;;;;;4.13;2.75;;;21.00;57.30;;;;;;5020909;28;20205;-81
2023/10/26 11:56:25;;;;;;;4.88;2.60;;;21.00;57.30;;;;;;5018417;28;20220;-81
2023/10/26 11:58:52;;;;;;;3.28;2.55;;;21.00;57.20;;;;;;5018695;28;20204;-81
2023/10/26 12:01:19;;;;;;;3.35;2.33;;;21.00;57.10;;;;;;5018430;28;20216;-81
2023/10/26 12:03:47;;;;;;;4.72;2.70;;;21.00;57.10;;;;;;5019873;28;20201;-81
2023/10/26 12:06:14;;;;;;;3.45;2.30;;;21.10;57.10;;;;;;5017854;28;20201;-81
2023/10/26 12:08:41;;;;;;;3.15;2.20;;;21.10;57.00;;;;;;5019680;28;20239;-81
2023/10/26 12:11:11;;;;;;;5.47;2.55;;;21.10;56.80;;;;;;5019242;28;20228;-81
2023/10/26 12:13:38;;;;;;;4.38;2.50;;;21.20;56.80;;;;;;5003578;28;20252;-81
2023/10/26 12:16:06;;;;;;;3.92;2.35;;;21.20;57.00;;;;;;5019657;28;20197;-81
2023/10/26 12:18:35;;;;;;;3.78;2.30;;;21.20;56.50;;;;;;5003326;28;20228;-81
2023/10/26 12:21:02;;;;;;;4.47;2.30;;;21.30;56.50;;;;;;5019416;28;20221;-81
2023/10/26 12:23:30;;;;;;;2.83;2.00;;;21.30;56.30;;;;;;5019373;28;20200;-81
2023/10/26 12:25:57;;;;;;;3.50;2.38;;;21.30;56.20;;;;;;5018953;28;20216;-81
2023/10/26 12:28:27;;;;;;;2.80;2.17;;;21.40;56.10;;;;;;5019338;28;20207;-81
2023/10/26 12:30:54;;;;;;;3.63;2.38;;;21.50;56.00;;;;;;5018530;28;20619;-81
2023/10/26 12:33:21;;;;;;;3.45;2.30;;;21.50;55.80;;;;;;5003889;28;20248;-80
2023/10/26 12:35:50;;;;;;;4.00;2.50;;;21.50;55.80;;;;;;5004036;28;20201;-80
2023/10/26 12:38:19;;;;;;;3.65;2.15;;;21.60;55.80;;;;;;4988250;28;20208;-80
2023/10/26 12:40:49;;;;;;;2.83;2.30;;;21.50;55.80;;;;;;5019303;28;20217;-80
2023/10/26 12:43:16;;;;;;;2.80;2.30;;;21.50;56.10;;;;;;5003038;28;20201;-80
2023/10/26 12:45:45;;;;;;;2.50;2.10;;;21.50;56.00;;;;;;5019077;28;20204;-80
2023/10/26 12:48:12;;;;;;;2.38;2.03;;;21.60;56.20;;;;;;5016565;28;20197;-79
2023/10/26 12:50:39;;;;;;;2.38;2.17;;;21.50;56.00;;;;;;4984151;28;20228;-79